Time;durP1;ratioP1;P1;durP2;ratioP2;P2;SDS_P1;SDS_P2;PMS_P1;PMS_P2;Temp;Humidity;BMP_temperature;BMP_pressure;BME280_temperature;BME280_humidity;BME280_pressure;Samples;Min_cycle;Max_cycle;Signal;HPM_P1;HPM_P2
2023/12/29 00:00:39;;;;;;;;;;;;;;;;;;5023603;28;58864;-73
2023/12/29 00:03:05;;;;;;;;;;;;;;;;;;5025282;28;58496;-74
2023/12/29 00:05:30;;;;;;;;;;;;;;;;;;5024363;28;59774;-75
2023/12/29 00:07:55;;;;;;;;;;;;;;;;;;5025153;28;58394;-74
2023/12/29 00:10:20;;;;;;;;;;;;;;;;;;5025537;28;58765;-72
2023/12/29 00:12:46;;;;;;;;;;;;;;;;;;5023602;28;58999;-74
2023/12/29 00:15:11;;;;;;;;;;;;;;;;;;5022808;28;58712;-73
2023/12/29 00:17:40;;;;;;;;;;;;;;;;;;5022246;28;60141;-73
2023/12/29 00:20:05;;;;;;;;;;;;;;;;;;5020551;28;59190;-74
2023/12/29 00:22:30;;;;;;;;;;;;;;;;;;5024136;28;58452;-73
2023/12/29 00:24:55;;;;;;;;;;;;;;;;;;5023515;28;60390;-76
2023/12/29 00:27:21;;;;;;;;;;;;;;;;;;5025536;28;58285;-73
2023/12/29 00:29:46;;;;;;;;;;;;;;;;;;5023318;28;59426;-73
2023/12/29 00:32:11;;;;;;;;;;;;;;;;;;5021617;28;60251;-73
2023/12/29 00:34:37;;;;;;;;;;;;;;;;;;5023367;28;58627;-73
2023/12/29 00:37:02;;;;;;;;;;;;;;;;;;5023780;27;58789;-73
2023/12/29 00:39:30;;;;;;;;;;;;;;;;;;5025132;28;58691;-73
2023/12/29 00:41:58;;;;;;;;;;;;;;;;;;5022110;28;58534;-73
2023/12/29 00:44:24;;;;;;;;;;;;;;;;;;5022607;28;59233;-73
2023/12/29 00:46:49;;;;;;;;;;;;;;;;;;5022971;28;58878;-73
2023/12/29 00:49:14;;;;;;;;;;;;;;;;;;5023874;28;59364;-76
2023/12/29 00:51:39;;;;;;;;;;;;;;;;;;5021772;28;58356;-73
2023/12/29 00:54:04;;;;;;;;;;;;;;;;;;5024540;28;58321;-73
2023/12/29 00:56:29;;;;;;;;;;;;;;;;;;5022513;27;59307;-73
2023/12/29 00:58:54;;;;;;;;;;;;;;;;;;5021996;28;60092;-73
2023/12/29 01:01:19;;;;;;;;;;;;;;;;;;5023313;28;58796;-73
2023/12/29 01:03:44;;;;;;;;;;;;;;;;;;5021786;28;60291;-73
2023/12/29 01:06:09;;;;;;;;;;;;;;;;;;5023702;28;59856;-73
2023/12/29 01:08:34;;;;;;;;;;;;;;;;;;5025361;28;58418;-73
2023/12/29 01:10:59;;;;;;;;;;;;;;;;;;5021200;27;59929;-73
2023/12/29 01:13:25;;;;;;;;;;;;;;;;;;5022781;28;58747;-73
2023/12/29 01:15:50;;;;;;;;;;;;;;;;;;5024007;28;60286;-73
2023/12/29 01:18:15;;;;;;;;;;;;;;;;;;5022106;28;58813;-73
2023/12/29 01:20:41;;;;;;;;;;;;;;;;;;5022965;28;58465;-73
2023/12/29 01:23:06;;;;;;;;;;;;;;;;;;5023658;28;59073;-73
2023/12/29 01:25:31;;;;;;;;;;;;;;;;;;5022428;28;58909;-73
2023/12/29 01:27:56;;;;;;;;;;;;;;;;;;5022895;27;58402;-73
2023/12/29 01:30:21;;;;;;;;;;;;;;;;;;5024592;28;59732;-73
2023/12/29 01:32:46;;;;;;;;;;;;;;;;;;5021802;27;58750;-73
2023/12/29 01:35:11;;;;;;;;;;;;;;;;;;5024037;28;59498;-73
2023/12/29 01:37:36;;;;;;;;;;;;;;;;;;5021382;28;59027;-73
2023/12/29 01:40:01;;;;;;;;;;;;;;;;;;5021261;27;58446;-73
2023/12/29 01:42:26;;;;;;;;;;;;;;;;;;5022401;28;59716;-75
2023/12/29 01:44:54;;;;;;;;;;;;;;;;;;5025107;27;59566;-75
2023/12/29 01:47:19;;;;;;;;;;;;;;;;;;5026809;28;58467;-75
2023/12/29 01:49:44;;;;;;;;;;;;;;;;;;5026524;28;59062;-72
2023/12/29 01:52:09;;;;;;;;;;;;;;;;;;5023523;27;58497;-72
2023/12/29 01:54:34;;;;;;;;;;;;;;;;;;5027937;28;58556;-70
2023/12/29 01:56:59;;;;;;;;;;;;;;;;;;5026961;27;58924;-71
2023/12/29 01:59:24;;;;;;;;;;;;;;;;;;5027251;28;58972;-70
2023/12/29 02:01:49;;;;;;;;;;;;;;;;;;5026316;28;59416;-71
2023/12/29 02:04:14;;;;;;;;;;;;;;;;;;5024597;28;59618;-71
2023/12/29 02:06:39;;;;;;;;;;;;;;;;;;5025582;28;58548;-71
2023/12/29 02:09:04;;;;;;;;;;;;;;;;;;5024767;28;59622;-71
2023/12/29 02:11:29;;;;;;;;;;;;;;;;;;5027458;27;59388;-72
2023/12/29 02:13:55;;;;;;;;;;;;;;;;;;5024998;28;59212;-71
2023/12/29 02:16:20;;;;;;;;;;;;;;;;;;5025697;28;58757;-70
2023/12/29 02:18:45;;;;;;;;;;;;;;;;;;5026937;27;58543;-71
2023/12/29 02:21:10;;;;;;;;;;;;;;;;;;5026102;28;60425;-71
2023/12/29 02:23:35;;;;;;;;;;;;;;;;;;5023652;27;58937;-70
2023/12/29 02:26:00;;;;;;;;;;;;;;;;;;5026654;28;58511;-70
2023/12/29 02:28:25;;;;;;;;;;;;;;;;;;5025240;27;59403;-72
2023/12/29 02:30:50;;;;;;;;;;;;;;;;;;5024305;27;60732;-70
2023/12/29 02:33:15;;;;;;;;;;;;;;;;;;5027741;28;59153;-71
2023/12/29 02:35:40;;;;;;;;;;;;;;;;;;5024310;27;59633;-73
2023/12/29 02:38:05;;;;;;;;;;;;;;;;;;5027494;28;58591;-73
2023/12/29 02:40:30;;;;;;;;;;;;;;;;;;5025859;28;59453;-71
2023/12/29 02:42:56;;;;;;;;;;;;;;;;;;5024712;28;58825;-72
2023/12/29 02:45:21;;;;;;;;;;;;;;;;;;5027317;28;58678;-71
2023/12/29 02:47:46;;;;;;;;;;;;;;;;;;5026399;28;60182;-71
2023/12/29 02:50:11;;;;;;;;;;;;;;;;;;5023317;28;59429;-70
2023/12/29 02:52:36;;;;;;;;;;;;;;;;;;5026097;28;58777;-71
2023/12/29 02:55:01;;;;;;;;;;;;;;;;;;5025081;28;59763;-71
2023/12/29 02:57:26;;;;;;;;;;;;;;;;;;5026387;28;59529;-71
2023/12/29 02:59:51;;;;;;;;;;;;;;;;;;5027310;28;58593;-73
2023/12/29 03:02:16;;;;;;;;;;;;;;;;;;5025037;28;58851;-74
2023/12/29 03:04:41;;;;;;;;;;;;;;;;;;5023964;28;59161;-73
2023/12/29 03:07:07;;;;;;;;;;;;;;;;;;5025866;28;59211;-73
2023/12/29 03:09:32;;;;;;;;;;;;;;;;;;5025708;28;59052;-73
2023/12/29 03:11:57;;;;;;;;;;;;;;;;;;5023046;28;58552;-73
2023/12/29 03:14:22;;;;;;;;;;;;;;;;;;5026605;28;58657;-73
2023/12/29 03:16:47;;;;;;;;;;;;;;;;;;5025072;28;58439;-73
2023/12/29 03:19:12;;;;;;;;;;;;;;;;;;5025118;28;60368;-73
2023/12/29 03:21:37;;;;;;;;;;;;;;;;;;5024265;28;58895;-73
2023/12/29 03:24:02;;;;;;;;;;;;;;;;;;5024970;28;58949;-73
2023/12/29 03:26:28;;;;;;;;;;;;;;;;;;5025157;28;59616;-73
2023/12/29 03:28:53;;;;;;;;;;;;;;;;;;5025130;28;58880;-73
2023/12/29 03:31:18;;;;;;;;;;;;;;;;;;5023810;28;58226;-73
2023/12/29 03:33:43;;;;;;;;;;;;;;;;;;5024078;28;59440;-73
2023/12/29 03:36:08;;;;;;;;;;;;;;;;;;5025783;28;58939;-73
2023/12/29 03:38:33;;;;;;;;;;;;;;;;;;5025192;28;58695;-73
2023/12/29 03:40:58;;;;;;;;;;;;;;;;;;5022973;28;58774;-73
2023/12/29 03:43:23;;;;;;;;;;;;;;;;;;5024235;28;58102;-75
2023/12/29 03:45:49;;;;;;;;;;;;;;;;;;5023639;28;59700;-75
2023/12/29 03:48:14;;;;;;;;;;;;;;;;;;5023768;28;60346;-75
2023/12/29 03:50:39;;;;;;;;;;;;;;;;;;5024837;28;58412;-75
2023/12/29 03:53:04;;;;;;;;;;;;;;;;;;5024290;28;58858;-75
2023/12/29 03:55:29;;;;;;;;;;;;;;;;;;5024881;28;59341;-75
2023/12/29 03:57:54;;;;;;;;;;;;;;;;;;5026066;28;59757;-75
2023/12/29 04:00:19;;;;;;;;;;;;;;;;;;5024242;28;58859;-75
2023/12/29 04:02:44;;;;;;;;;;;;;;;;;;5023415;28;58486;-75
2023/12/29 04:05:10;;;;;;;;;;;;;;;;;;5024634;28;60550;-75
2023/12/29 04:07:35;;;;;;;;;;;;;;;;;;5022761;28;59757;-75
2023/12/29 04:10:00;;;;;;;;;;;;;;;;;;5024100;28;58802;-75
2023/12/29 04:12:25;;;;;;;;;;;;;;;;;;5026364;28;59507;-75
2023/12/29 04:14:50;;;;;;;;;;;;;;;;;;5024154;28;58651;-75
2023/12/29 04:17:16;;;;;;;;;;;;;;;;;;5024660;28;58482;-75
2023/12/29 04:19:41;;;;;;;;;;;;;;;;;;5024786;28;59469;-73
2023/12/29 04:22:07;;;;;;;;;;;;;;;;;;5022865;28;58872;-73
2023/12/29 04:24:32;;;;;;;;;;;;;;;;;;5026307;28;58391;-72
2023/12/29 04:26:57;;;;;;;;;;;;;;;;;;5022739;28;58950;-72
2023/12/29 04:29:22;;;;;;;;;;;;;;;;;;5023761;28;77802;-72
2023/12/29 04:31:47;;;;;;;;;;;;;;;;;;5024470;28;59473;-73
2023/12/29 04:34:12;;;;;;;;;;;;;;;;;;5022186;28;58795;-70
2023/12/29 04:36:37;;;;;;;;;;;;;;;;;;5022634;28;58435;-72
2023/12/29 04:39:02;;;;;;;;;;;;;;;;;;5025777;28;59505;-71
2023/12/29 04:41:27;;;;;;;;;;;;;;;;;;5020424;28;60039;-73
2023/12/29 04:43:52;;;;;;;;;;;;;;;;;;5022717;28;60934;-72
2023/12/29 04:46:17;;;;;;;;;;;;;;;;;;5023517;27;58920;-73
2023/12/29 04:48:42;;;;;;;;;;;;;;;;;;5023375;28;58543;-72
2023/12/29 04:51:07;;;;;;;;;;;;;;;;;;5024750;28;59755;-73
2023/12/29 04:53:33;;;;;;;;;;;;;;;;;;5024032;28;59331;-72
2023/12/29 04:55:58;;;;;;;;;;;;;;;;;;5023796;27;58962;-72
2023/12/29 04:58:23;;;;;;;;;;;;;;;;;;5024173;28;59317;-71
2023/12/29 05:00:48;;;;;;;;;;;;;;;;;;5023566;28;59166;-72
2023/12/29 05:03:13;;;;;;;;;;;;;;;;;;5024025;28;58625;-72
2023/12/29 05:05:38;;;;;;;;;;;;;;;;;;5023794;28;59127;-73
2023/12/29 05:08:03;;;;;;;;;;;;;;;;;;5024999;28;77323;-71
2023/12/29 05:10:28;;;;;;;;;;;;;;;;;;5020839;28;60429;-73
2023/12/29 05:12:53;;;;;;;;;;;;;;;;;;5023776;28;59810;-72
2023/12/29 05:15:18;;;;;;;;;;;;;;;;;;5024744;28;58649;-73
2023/12/29 05:17:44;;;;;;;;;;;;;;;;;;5023322;28;59418;-72
2023/12/29 05:20:09;;;;;;;;;;;;;;;;;;5022114;28;58645;-72
2023/12/29 05:22:34;;;;;;;;;;;;;;;;;;5027576;28;58429;-72
2023/12/29 05:25:00;;;;;;;;;;;;;;;;;;5026963;27;58855;-72
2023/12/29 05:27:25;;;;;;;;;;;;;;;;;;5028070;28;58595;-75
2023/12/29 05:29:50;;;;;;;;;;;;;;;;;;5027135;28;61175;-75
2023/12/29 05:32:15;;;;;;;;;;;;;;;;;;5025223;28;59749;-75
2023/12/29 05:34:40;;;;;;;;;;;;;;;;;;5027996;28;58705;-73
2023/12/29 05:37:05;;;;;;;;;;;;;;;;;;5026300;28;59494;-73
2023/12/29 05:39:30;;;;;;;;;;;;;;;;;;5027522;28;58898;-75
2023/12/29 05:41:55;;;;;;;;;;;;;;;;;;5026510;28;58508;-75
2023/12/29 05:44:20;;;;;;;;;;;;;;;;;;5026860;28;59551;-75
2023/12/29 05:46:45;;;;;;;;;;;;;;;;;;5027123;28;58792;-75
2023/12/29 05:49:11;;;;;;;;;;;;;;;;;;5027524;28;60466;-75
2023/12/29 05:51:36;;;;;;;;;;;;;;;;;;5025161;28;59756;-74
2023/12/29 05:54:01;;;;;;;;;;;;;;;;;;5026782;28;58394;-75
2023/12/29 05:56:26;;;;;;;;;;;;;;;;;;5027564;28;59335;-73
2023/12/29 05:58:51;;;;;;;;;;;;;;;;;;5026277;27;59688;-75
2023/12/29 06:01:16;;;;;;;;;;;;;;;;;;5026849;28;58910;-75
2023/12/29 06:03:41;;;;;;;;;;;;;;;;;;5026470;28;59747;-75
2023/12/29 06:06:06;;;;;;;;;;;;;;;;;;5027490;28;59735;-75
2023/12/29 06:08:31;;;;;;;;;;;;;;;;;;5026920;28;59324;-75
2023/12/29 06:10:56;;;;;;;;;;;;;;;;;;5026032;28;59382;-75
2023/12/29 06:13:22;;;;;;;;;;;;;;;;;;5025419;28;58511;-75
2023/12/29 06:15:47;;;;;;;;;;;;;;;;;;5025766;28;59456;-74
2023/12/29 06:18:12;;;;;;;;;;;;;;;;;;5027091;28;58900;-74
2023/12/29 06:20:37;;;;;;;;;;;;;;;;;;5025286;27;58383;-74
2023/12/29 06:23:02;;;;;;;;;;;;;;;;;;5026826;28;60451;-74
2023/12/29 06:25:27;;;;;;;;;;;;;;;;;;5025174;28;60181;-74
2023/12/29 06:27:52;;;;;;;;;;;;;;;;;;5026960;28;58822;-74
2023/12/29 06:30:17;;;;;;;;;;;;;;;;;;5026429;28;59718;-74
2023/12/29 06:32:42;;;;;;;;;;;;;;;;;;5026021;28;58918;-74
2023/12/29 06:35:09;;;;;;;;;;;;;;;;;;5022576;28;59348;-74
2023/12/29 06:37:34;;;;;;;;;;;;;;;;;;5024706;28;59067;-74
2023/12/29 06:39:59;;;;;;;;;;;;;;;;;;5025375;28;58912;-75
2023/12/29 06:42:25;;;;;;;;;;;;;;;;;;5025986;28;60233;-74
2023/12/29 06:44:50;;;;;;;;;;;;;;;;;;5022984;28;58593;-75
2023/12/29 06:47:15;;;;;;;;;;;;;;;;;;5025894;28;59172;-74
2023/12/29 06:49:40;;;;;;;;;;;;;;;;;;5024873;28;58493;-71
2023/12/29 06:52:05;;;;;;;;;;;;;;;;;;5025375;28;59915;-72
2023/12/29 06:54:31;;;;;;;;;;;;;;;;;;5025805;28;59494;-74
2023/12/29 06:56:56;;;;;;;;;;;;;;;;;;5025524;28;58786;-74
2023/12/29 06:59:22;;;;;;;;;;;;;;;;;;5026670;27;58400;-71
2023/12/29 07:01:47;;;;;;;;;;;;;;;;;;5024642;27;58767;-71
2023/12/29 07:04:12;;;;;;;;;;;;;;;;;;5025166;28;59131;-72
2023/12/29 07:06:37;;;;;;;;;;;;;;;;;;5024857;28;58449;-72
2023/12/29 07:09:02;;;;;;;;;;;;;;;;;;5025899;28;59339;-73
2023/12/29 07:11:27;;;;;;;;;;;;;;;;;;5026426;28;58834;-72
2023/12/29 07:13:53;;;;;;;;;;;;;;;;;;5025829;28;60337;-71
2023/12/29 07:16:19;;;;;;;;;;;;;;;;;;5023633;28;59728;-73
2023/12/29 07:18:45;;;;;;;;;;;;;;;;;;5023772;28;58709;-73
2023/12/29 07:21:11;;;;;;;;;;;;;;;;;;5027934;28;60383;-72
2023/12/29 07:23:37;;;;;;;;;;;;;;;;;;5024505;28;59794;-72
2023/12/29 07:26:02;;;;;;;;;;;;;;;;;;5025178;28;58499;-71
2023/12/29 07:28:27;;;;;;;;;;;;;;;;;;5022948;28;59652;-71
2023/12/29 07:30:52;;;;;;;;;;;;;;;;;;5022706;28;60189;-71
2023/12/29 07:33:17;;;;;;;;;;;;;;;;;;5026694;28;58412;-72
2023/12/29 07:35:42;;;;;;;;;;;;;;;;;;5024804;28;59059;-74
2023/12/29 07:38:07;;;;;;;;;;;;;;;;;;5026308;28;58643;-71
2023/12/29 07:40:32;;;;;;;;;;;;;;;;;;5025007;27;59737;-72
2023/12/29 07:42:57;;;;;;;;;;;;;;;;;;5023616;28;59726;-71
2023/12/29 07:45:22;;;;;;;;;;;;;;;;;;5026449;28;58443;-73
2023/12/29 07:47:47;;;;;;;;;;;;;;;;;;5025725;28;59402;-72
2023/12/29 07:50:12;;;;;;;;;;;;;;;;;;5023795;28;59688;-71
2023/12/29 07:52:37;;;;;;;;;;;;;;;;;;5024438;28;58511;-71
2023/12/29 07:55:02;;;;;;;;;;;;;;;;;;5024395;28;59283;-74
2023/12/29 07:57:28;;;;;;;;;;;;;;;;;;5025761;28;58863;-73
2023/12/29 07:59:53;;;;;;;;;;;;;;;;;;5024539;28;59419;-72
2023/12/29 08:02:18;;;;;;;;;;;;;;;;;;5024386;28;59030;-70
2023/12/29 08:04:46;;;;;;;;;;;;;;;;;;5024466;28;58600;-72
2023/12/29 08:07:11;;;;;;;;;;;;;;;;;;5025168;27;59491;-72
2023/12/29 08:09:36;;;;;;;;;;;;;;;;;;5025116;28;58564;-75
2023/12/29 08:12:01;;;;;;;;;;;;;;;;;;5023541;27;58625;-72
2023/12/29 08:14:27;;;;;;;;;;;;;;;;;;5025862;28;60031;-72
2023/12/29 08:16:52;;;;;;;;;;;;;;;;;;5023696;28;59540;-74
2023/12/29 08:19:17;;;;;;;;;;;;;;;;;;5023877;28;59319;-75
2023/12/29 08:21:42;;;;;;;;;;;;;;;;;;5023416;28;60032;-74
2023/12/29 08:24:07;;;;;;;;;;;;;;;;;;5023991;28;58820;-77
2023/12/29 08:26:32;;;;;;;;;;;;;;;;;;5023539;28;58560;-74
2023/12/29 08:28:57;;;;;;;;;;;;;;;;;;5022624;28;58559;-74
2023/12/29 08:31:23;;;;;;;;;;;;;;;;;;5023370;28;58753;-75
2023/12/29 08:33:48;;;;;;;;;;;;;;;;;;5018348;27;60157;-74
2023/12/29 08:36:13;;;;;;;;;;;;;;;;;;5025303;28;58531;-73
2023/12/29 08:38:38;;;;;;;;;;;;;;;;;;5023347;28;59610;-73
2023/12/29 08:41:03;;;;;;;;;;;;;;;;;;5019674;28;59207;-71
2023/12/29 08:43:28;;;;;;;;;;;;;;;;;;5023423;28;58942;-73
2023/12/29 08:45:54;;;;;;;;;;;;;;;;;;5023918;28;59400;-74
2023/12/29 08:48:19;;;;;;;;;;;;;;;;;;5022490;28;59776;-73
2023/12/29 08:50:44;;;;;;;;;;;;;;;;;;5023214;28;58583;-73
2023/12/29 08:53:09;;;;;;;;;;;;;;;;;;5023089;27;60161;-74
2023/12/29 08:55:34;;;;;;;;;;;;;;;;;;5021827;28;58987;-74
2023/12/29 08:57:59;;;;;;;;;;;;;;;;;;5025787;28;58890;-73
2023/12/29 09:00:24;;;;;;;;;;;;;;;;;;5024749;28;58630;-73
2023/12/29 09:02:49;;;;;;;;;;;;;;;;;;5024451;28;59708;-73
2023/12/29 09:05:14;;;;;;;;;;;;;;;;;;5023559;28;59713;-74
2023/12/29 09:07:39;;;;;;;;;;;;;;;;;;5021868;28;58881;-73
2023/12/29 09:10:07;;;;;;;;;;;;;;;;;;5024017;28;58326;-72
2023/12/29 09:12:32;;;;;;;;;;;;;;;;;;5025274;28;59331;-73
2023/12/29 09:14:58;;;;;;;;;;;;;;;;;;5024100;28;59326;-74
2023/12/29 09:17:23;;;;;;;;;;;;;;;;;;5022903;28;58728;-73
2023/12/29 09:19:48;;;;;;;;;;;;;;;;;;5024045;28;58966;-73
2023/12/29 09:22:13;;;;;;;;;;;;;;;;;;5022763;28;59560;-72
2023/12/29 09:24:38;;;;;;;;;;;;;;;;;;5023953;28;59286;-74
2023/12/29 09:27:03;;;;;;;;;;;;;;;;;;5023068;28;59100;-72
2023/12/29 09:29:29;;;;;;;;;;;;;;;;;;5022679;27;58298;-73
2023/12/29 09:31:54;;;;;;;;;;;;;;;;;;5022775;28;59296;-73
2023/12/29 09:34:19;;;;;;;;;;;;;;;;;;5023308;28;58784;-73
2023/12/29 09:36:44;;;;;;;;;;;;;;;;;;5022111;28;58504;-72
2023/12/29 09:39:09;;;;;;;;;;;;;;;;;;5023402;28;58939;-73
2023/12/29 09:41:35;;;;;;;;;;;;;;;;;;5022408;28;58415;-73
2023/12/29 09:44:00;;;;;;;;;;;;;;;;;;5021540;28;59609;-73
2023/12/29 09:46:25;;;;;;;;;;;;;;;;;;5022119;28;60833;-73
2023/12/29 09:48:50;;;;;;;;;;;;;;;;;;5022987;28;58781;-73
2023/12/29 09:51:15;;;;;;;;;;;;;;;;;;5023612;28;59268;-72
2023/12/29 09:53:41;;;;;;;;;;;;;;;;;;5022560;28;59098;-74
2023/12/29 09:56:06;;;;;;;;;;;;;;;;;;5023267;28;58413;-72
2023/12/29 09:58:31;;;;;;;;;;;;;;;;;;5021387;28;60539;-73
2023/12/29 10:00:56;;;;;;;;;;;;;;;;;;5022050;28;58885;-72
2023/12/29 10:03:21;;;;;;;;;;;;;;;;;;5021421;28;59454;-74
2023/12/29 10:05:46;;;;;;;;;;;;;;;;;;5021388;27;58574;-73
2023/12/29 10:08:11;;;;;;;;;;;;;;;;;;5027337;28;59453;-73
2023/12/29 10:10:36;;;;;;;;;;;;;;;;;;5025208;28;60600;-73
2023/12/29 10:13:02;;;;;;;;;;;;;;;;;;5024097;28;58811;-73
2023/12/29 10:15:27;;;;;;;;;;;;;;;;;;5028795;28;58463;-72
2023/12/29 10:17:52;;;;;;;;;;;;;;;;;;5026177;27;59746;-74
2023/12/29 10:20:18;;;;;;;;;;;;;;;;;;5025259;27;58784;-75
2023/12/29 10:22:43;;;;;;;;;;;;;;;;;;5027527;28;58697;-75
2023/12/29 10:25:08;;;;;;;;;;;;;;;;;;5027127;28;59268;-75
2023/12/29 10:27:33;;;;;;;;;;;;;;;;;;5026898;28;58535;-75
2023/12/29 10:29:58;;;;;;;;;;;;;;;;;;5027509;28;60248;-75
2023/12/29 10:32:23;;;;;;;;;;;;;;;;;;5025853;27;58344;-75
2023/12/29 10:34:48;;;;;;;;;;;;;;;;;;5026273;28;58303;-75
2023/12/29 10:37:19;;;;;;;;;;;;;;;;;;5026921;28;58787;-74
2023/12/29 10:39:44;;;;;;;;;;;;;;;;;;5024412;28;59042;-75
2023/12/29 10:42:09;;;;;;;;;;;;;;;;;;5025012;28;58411;-75
2023/12/29 10:44:34;;;;;;;;;;;;;;;;;;5026105;28;60181;-74
2023/12/29 10:46:59;;;;;;;;;;;;;;;;;;5025013;28;58998;-75
2023/12/29 10:49:25;;;;;;;;;;;;;;;;;;5025962;28;58755;-74
2023/12/29 10:51:50;;;;;;;;;;;;;;;;;;5025820;28;59055;-75
2023/12/29 10:54:15;;;;;;;;;;;;;;;;;;5027160;28;59595;-75
2023/12/29 10:56:40;;;;;;;;;;;;;;;;;;5024575;28;61081;-75
2023/12/29 10:59:05;;;;;;;;;;;;;;;;;;5024249;28;59590;-75
2023/12/29 11:01:30;;;;;;;;;;;;;;;;;;5025111;28;58693;-75
2023/12/29 11:03:55;;;;;;;;;;;;;;;;;;5026272;28;59367;-75
2023/12/29 11:06:20;;;;;;;;;;;;;;;;;;5026557;28;58885;-75
2023/12/29 11:08:45;;;;;;;;;;;;;;;;;;5026395;27;59468;-75
2023/12/29 11:11:10;;;;;;;;;;;;;;;;;;5024728;28;58635;-75
2023/12/29 11:13:36;;;;;;;;;;;;;;;;;;5025466;28;58307;-74
2023/12/29 11:16:01;;;;;;;;;;;;;;;;;;5024170;28;59828;-75
2023/12/29 11:18:26;;;;;;;;;;;;;;;;;;5025110;28;58519;-73
2023/12/29 11:20:52;;;;;;;;;;;;;;;;;;5025663;28;58301;-74
2023/12/29 11:23:18;;;;;;;;;;;;;;;;;;5024724;28;59613;-73
2023/12/29 11:25:43;;;;;;;;;;;;;;;;;;5024971;28;58734;-72
2023/12/29 11:28:08;;;;;;;;;;;;;;;;;;5025660;27;58526;-72
2023/12/29 11:30:33;;;;;;;;;;;;;;;;;;5024524;28;59855;-72
2023/12/29 11:32:58;;;;;;;;;;;;;;;;;;5024113;28;58759;-73
2023/12/29 11:35:23;;;;;;;;;;;;;;;;;;5025061;28;60898;-73
2023/12/29 11:37:48;;;;;;;;;;;;;;;;;;5022463;28;60720;-74
2023/12/29 11:40:13;;;;;;;;;;;;;;;;;;5022740;27;58664;-72
2023/12/29 11:42:38;;;;;;;;;;;;;;;;;;5025441;28;59505;-76
2023/12/29 11:45:03;;;;;;;;;;;;;;;;;;5023950;28;58523;-72
2023/12/29 11:47:29;;;;;;;;;;;;;;;;;;5026090;28;58605;-73
2023/12/29 11:49:54;;;;;;;;;;;;;;;;;;5023875;28;59628;-72
2023/12/29 11:52:19;;;;;;;;;;;;;;;;;;5023630;28;58286;-73
2023/12/29 11:54:44;;;;;;;;;;;;;;;;;;5022121;28;60568;-74
2023/12/29 11:57:09;;;;;;;;;;;;;;;;;;5021552;28;59804;-74
2023/12/29 11:59:34;;;;;;;;;;;;;;;;;;5023710;28;58346;-74
2023/12/29 12:02:00;;;;;;;;;;;;;;;;;;5021254;28;60772;-78
2023/12/29 12:04:25;;;;;;;;;;;;;;;;;;5020385;28;59950;-79
2023/12/29 12:06:50;;;;;;;;;;;;;;;;;;5024364;28;58418;-80
2023/12/29 12:09:15;;;;;;;;;;;;;;;;;;5024775;28;59754;-80
2023/12/29 12:11:41;;;;;;;;;;;;;;;;;;5023296;28;58982;-80
2023/12/29 12:14:06;;;;;;;;;;;;;;;;;;5024820;28;59798;-75
2023/12/29 12:16:31;;;;;;;;;;;;;;;;;;5025176;28;59545;-74
2023/12/29 12:18:56;;;;;;;;;;;;;;;;;;5023141;28;59675;-73
2023/12/29 12:21:22;;;;;;;;;;;;;;;;;;5026221;28;59685;-74
2023/12/29 12:23:47;;;;;;;;;;;;;;;;;;5023398;27;58869;-75
2023/12/29 12:26:12;;;;;;;;;;;;;;;;;;5023169;28;58613;-74
2023/12/29 12:28:37;;;;;;;;;;;;;;;;;;5026639;27;59076;-80
2023/12/29 12:31:02;;;;;;;;;;;;;;;;;;5025396;28;59512;-80
2023/12/29 12:33:28;;;;;;;;;;;;;;;;;;5024352;28;59610;-80
2023/12/29 12:35:53;;;;;;;;;;;;;;;;;;5024672;28;59277;-78
2023/12/29 12:38:22;;;;;;;;;;;;;;;;;;5025489;28;58361;-75
2023/12/29 12:40:47;;;;;;;;;;;;;;;;;;5021294;28;60581;-80
2023/12/29 12:43:12;;;;;;;;;;;;;;;;;;5024130;27;59046;-76
2023/12/29 12:45:37;;;;;;;;;;;;;;;;;;5025222;28;58825;-79
2023/12/29 12:48:02;;;;;;;;;;;;;;;;;;5021424;28;59157;-78
2023/12/29 12:50:28;;;;;;;;;;;;;;;;;;5022441;27;59729;-77
2023/12/29 12:52:53;;;;;;;;;;;;;;;;;;5024363;28;58417;-72
2023/12/29 12:55:18;;;;;;;;;;;;;;;;;;5022095;28;58875;-78
2023/12/29 12:57:43;;;;;;;;;;;;;;;;;;5021588;28;58520;-77
2023/12/29 13:00:09;;;;;;;;;;;;;;;;;;5024315;28;59292;-76
2023/12/29 13:02:34;;;;;;;;;;;;;;;;;;5020377;28;58891;-76
2023/12/29 13:04:59;;;;;;;;;;;;;;;;;;5023624;28;58788;-76
2023/12/29 13:07:24;;;;;;;;;;;;;;;;;;5024094;28;59825;-75
2023/12/29 13:09:50;;;;;;;;;;;;;;;;;;5023257;28;59787;-75
2023/12/29 13:12:16;;;;;;;;;;;;;;;;;;5021017;28;58400;-76
2023/12/29 13:14:41;;;;;;;;;;;;;;;;;;5021315;28;60178;-76
2023/12/29 13:17:06;;;;;;;;;;;;;;;;;;5024368;27;59051;-76
2023/12/29 13:19:33;;;;;;;;;;;;;;;;;;5022986;28;60373;-75
2023/12/29 13:21:59;;;;;;;;;;;;;;;;;;5022044;28;59020;-75
2023/12/29 13:24:25;;;;;;;;;;;;;;;;;;5023452;28;58310;-76
2023/12/29 13:26:52;;;;;;;;;;;;;;;;;;5019640;28;59383;-75
2023/12/29 13:29:17;;;;;;;;;;;;;;;;;;5022846;27;59784;-76
2023/12/29 13:31:42;;;;;;;;;;;;;;;;;;5025301;28;59689;-76
2023/12/29 13:34:07;;;;;;;;;;;;;;;;;;5022706;28;59432;-76
2023/12/29 13:36:32;;;;;;;;;;;;;;;;;;5024085;28;59418;-76
2023/12/29 13:38:57;;;;;;;;;;;;;;;;;;5021099;28;58868;-71
2023/12/29 13:41:22;;;;;;;;;;;;;;;;;;5021578;27;58668;-74
2023/12/29 13:43:47;;;;;;;;;;;;;;;;;;5023902;27;58429;-71
2023/12/29 13:46:12;;;;;;;;;;;;;;;;;;5024482;28;59664;-72
2023/12/29 13:48:37;;;;;;;;;;;;;;;;;;5023097;28;58974;-75
2023/12/29 13:51:03;;;;;;;;;;;;;;;;;;5024793;28;58782;-76
2023/12/29 13:53:29;;;;;;;;;;;;;;;;;;5022629;28;60275;-76
2023/12/29 13:55:55;;;;;;;;;;;;;;;;;;5022895;28;59821;-76
2023/12/29 13:58:20;;;;;;;;;;;;;;;;;;5024435;28;58417;-76
2023/12/29 14:00:45;;;;;;;;;;;;;;;;;;5025248;27;59293;-76
2023/12/29 14:03:10;;;;;;;;;;;;;;;;;;5024897;28;58617;-75
2023/12/29 14:05:35;;;;;;;;;;;;;;;;;;5023537;28;59527;-75
2023/12/29 14:08:00;;;;;;;;;;;;;;;;;;5023673;28;59145;-74
2023/12/29 14:10:25;;;;;;;;;;;;;;;;;;5024599;28;58518;-72
2023/12/29 14:12:50;;;;;;;;;;;;;;;;;;5022654;28;59139;-72
2023/12/29 14:15:15;;;;;;;;;;;;;;;;;;5022105;28;59093;-73
2023/12/29 14:17:40;;;;;;;;;;;;;;;;;;5021008;28;59322;-73
2023/12/29 14:20:06;;;;;;;;;;;;;;;;;;5019147;28;60018;-73
2023/12/29 14:22:31;;;;;;;;;;;;;;;;;;5023628;28;58841;-75
2023/12/29 14:24:56;;;;;;;;;;;;;;;;;;5023243;28;59417;-78
2023/12/29 14:27:21;;;;;;;;;;;;;;;;;;5022729;28;58797;-76
2023/12/29 14:29:46;;;;;;;;;;;;;;;;;;5019514;28;59035;-77
2023/12/29 14:32:11;;;;;;;;;;;;;;;;;;5021285;28;60804;-76
2023/12/29 14:34:37;;;;;;;;;;;;;;;;;;5023947;28;58988;-78
2023/12/29 14:37:02;;;;;;;;;;;;;;;;;;5022175;27;59305;-77
2023/12/29 14:39:27;;;;;;;;;;;;;;;;;;5025447;28;58628;-77
2023/12/29 14:41:53;;;;;;;;;;;;;;;;;;5021825;28;58901;-76
2023/12/29 14:44:18;;;;;;;;;;;;;;;;;;5022112;28;59512;-77
2023/12/29 14:46:44;;;;;;;;;;;;;;;;;;5023996;28;58944;-76
2023/12/29 14:49:09;;;;;;;;;;;;;;;;;;5026296;27;58880;-75
2023/12/29 14:51:34;;;;;;;;;;;;;;;;;;5026640;28;59263;-73
2023/12/29 14:53:59;;;;;;;;;;;;;;;;;;5025465;28;59035;-73
2023/12/29 14:56:24;;;;;;;;;;;;;;;;;;5025743;28;58610;-73
2023/12/29 14:58:49;;;;;;;;;;;;;;;;;;5024739;28;59278;-74
2023/12/29 15:01:15;;;;;;;;;;;;;;;;;;5021376;28;59497;-75
2023/12/29 15:03:40;;;;;;;;;;;;;;;;;;5022126;28;58904;-76
2023/12/29 15:06:05;;;;;;;;;;;;;;;;;;5019312;28;59711;-76
2023/12/29 15:08:34;;;;;;;;;;;;;;;;;;5024556;28;58610;-74
2023/12/29 15:10:59;;;;;;;;;;;;;;;;;;5025704;28;60273;-76
2023/12/29 15:13:26;;;;;;;;;;;;;;;;;;5024990;27;59338;-76
2023/12/29 15:15:51;;;;;;;;;;;;;;;;;;5022846;28;59079;-76
2023/12/29 15:18:17;;;;;;;;;;;;;;;;;;5026718;28;58405;-75
2023/12/29 15:20:42;;;;;;;;;;;;;;;;;;5025141;28;59432;-74
2023/12/29 15:23:07;;;;;;;;;;;;;;;;;;5025931;28;58665;-75
2023/12/29 15:25:33;;;;;;;;;;;;;;;;;;5024794;27;58528;-75
2023/12/29 15:27:58;;;;;;;;;;;;;;;;;;5022808;28;58715;-76
2023/12/29 15:30:24;;;;;;;;;;;;;;;;;;5026240;28;58748;-76
2023/12/29 15:32:49;;;;;;;;;;;;;;;;;;5023510;28;58936;-74
2023/12/29 15:35:14;;;;;;;;;;;;;;;;;;5026692;27;58519;-75
2023/12/29 15:37:39;;;;;;;;;;;;;;;;;;5023025;28;58415;-75
2023/12/29 15:40:05;;;;;;;;;;;;;;;;;;5023204;28;60529;-74
2023/12/29 15:42:30;;;;;;;;;;;;;;;;;;5022769;28;58836;-75
2023/12/29 15:44:55;;;;;;;;;;;;;;;;;;5025316;28;59533;-74
2023/12/29 15:47:20;;;;;;;;;;;;;;;;;;5024344;28;59118;-75
2023/12/29 15:49:45;;;;;;;;;;;;;;;;;;5024106;28;60413;-74
2023/12/29 15:52:10;;;;;;;;;;;;;;;;;;5021386;28;59315;-75
2023/12/29 15:54:35;;;;;;;;;;;;;;;;;;5022918;28;58859;-75
2023/12/29 15:57:06;;;;;;;;;;;;;;;;;;5021568;28;59747;-77
2023/12/29 15:59:31;;;;;;;;;;;;;;;;;;5021505;27;59226;-77
2023/12/29 16:01:56;;;;;;;;;;;;;;;;;;5020998;28;58686;-76
2023/12/29 16:04:21;;;;;;;;;;;;;;;;;;5018180;28;59380;-75
2023/12/29 16:06:46;;;;;;;;;;;;;;;;;;5019968;28;59415;-75
2023/12/29 16:09:11;;;;;;;;;;;;;;;;;;5021068;28;59402;-73
2023/12/29 16:11:36;;;;;;;;;;;;;;;;;;5022179;28;59058;-76
2023/12/29 16:14:01;;;;;;;;;;;;;;;;;;5024188;28;58814;-75
2023/12/29 16:16:30;;;;;;;;;;;;;;;;;;5017749;28;59442;-77
2023/12/29 16:18:55;;;;;;;;;;;;;;;;;;5016362;28;59044;-82
2023/12/29 16:21:20;;;;;;;;;;;;;;;;;;5019256;28;59172;-81
2023/12/29 16:23:45;;;;;;;;;;;;;;;;;;5022279;28;58699;-82
2023/12/29 16:26:10;;;;;;;;;;;;;;;;;;5021891;28;58866;-82
2023/12/29 16:28:35;;;;;;;;;;;;;;;;;;5022414;28;59326;-80
2023/12/29 16:31:00;;;;;;;;;;;;;;;;;;5024835;28;58872;-80